Aviation Digital Data Service (ADDS)

Output produced by METARs form (0947 UTC 30 September 2014)
found at http://aviationweather.gov/adds/metars/
 
KBWI 300856Z 3009/0112 VRB03KT 2SM BR SCT004 OVC008 
     FM301000 VRB03KT 3SM BR FEW008 SCT025 
     FM301300 VRB03KT P6SM FEW025 SCT050 
     FM010300 VRB03KT P6SM BKN090